createdAt,value
2019-01-30T00:01:22.959Z,90658.16
2019-01-30T00:04:12.338Z,90652.23
2019-01-30T00:07:01.626Z,90645.36
2019-01-30T00:09:50.683Z,90640.59
2019-01-30T00:12:40.071Z,90626.22
2019-01-30T00:15:28.921Z,90623.95
2019-01-30T00:18:18.350Z,90622.87
2019-01-30T00:21:07.747Z,90626.37
2019-01-30T00:23:56.931Z,90619.44
2019-01-30T00:26:46.584Z,90616.77
2019-01-30T00:29:35.611Z,90622.41
2019-01-30T00:32:24.911Z,90617.33
2019-01-30T00:35:14.607Z,90618.19
2019-01-30T00:38:06.391Z,90618.03
2019-01-30T00:40:55.671Z,90622.87
2019-01-30T00:43:44.877Z,90623.17
2019-01-30T00:46:34.097Z,90615.05
2019-01-30T00:49:23.175Z,90619.20
2019-01-30T00:52:11.936Z,90614.59
2019-01-30T00:55:01.463Z,90622.08
2019-01-30T00:57:51.076Z,90608.32
2019-01-30T01:00:40.244Z,90608.08
2019-01-30T01:03:29.335Z,90610.05
2019-01-30T01:06:18.126Z,90604.60
2019-01-30T01:09:10.606Z,90603.98
2019-01-30T01:11:59.404Z,90597.58
2019-01-30T01:14:48.874Z,90591.95
2019-01-30T01:17:38.333Z,90589.83
2019-01-30T01:20:26.849Z,90595.08
2019-01-30T01:23:16.635Z,90594.41
2019-01-30T01:26:05.834Z,90592.53
2019-01-30T01:28:55.153Z,90589.09
2019-01-30T01:31:44.781Z,90579.09
2019-01-30T01:34:34.140Z,90573.48
2019-01-30T01:37:23.401Z,90566.92
2019-01-30T01:40:14.994Z,90564.36
2019-01-30T01:43:04.385Z,90554.32
2019-01-30T01:45:53.734Z,90569.55
2019-01-30T01:48:43.326Z,90563.19
2019-01-30T01:51:32.249Z,90571.61
2019-01-30T01:54:21.397Z,90564.43
2019-01-30T01:57:10.290Z,90575.09
2019-01-30T01:59:59.571Z,90574.11
2019-01-30T02:02:48.846Z,90588.75
2019-01-30T02:05:38.158Z,90586.25
2019-01-30T02:08:27.678Z,90578.80
2019-01-30T02:11:17.324Z,90579.89
2019-01-30T02:14:06.384Z,90569.39
2019-01-30T02:16:55.163Z,90567.44
2019-01-30T02:19:44.270Z,90566.19
2019-01-30T02:22:33.551Z,90569.00
2019-01-30T02:25:22.975Z,90573.92
2019-01-30T02:28:12.257Z,90578.13
2019-01-30T02:31:01.644Z,90579.06
2019-01-30T02:33:50.738Z,90581.16
2019-01-30T02:36:59.127Z,90589.95
2019-01-30T02:39:48.372Z,90574.62
2019-01-30T02:42:38.698Z,90560.24
2019-01-30T02:45:28.093Z,90546.36
2019-01-30T02:48:17.978Z,90541.49
2019-01-30T02:51:07.136Z,90544.73
2019-01-30T02:53:56.382Z,90544.05
2019-01-30T02:56:46.048Z,90554.06
2019-01-30T02:59:35.706Z,90547.81
2019-01-30T03:02:25.589Z,90544.16
2019-01-30T03:05:14.756Z,90518.95
2019-01-30T03:08:04.615Z,90521.77
2019-01-30T03:10:54.094Z,90519.27
2019-01-30T03:13:43.379Z,90515.59
2019-01-30T03:16:32.212Z,90513.61
2019-01-30T03:19:21.464Z,90523.15
2019-01-30T03:22:11.111Z,90516.30
2019-01-30T03:25:00.567Z,90521.99
2019-01-30T03:27:49.965Z,90519.41
2019-01-30T03:30:39.231Z,90515.51
2019-01-30T03:33:28.518Z,90515.73
2019-01-30T03:36:17.769Z,90521.27
2019-01-30T03:39:08.597Z,90510.61
2019-01-30T03:41:58.198Z,90503.42
2019-01-30T03:44:48.922Z,90495.91
2019-01-30T03:47:38.605Z,90486.30
2019-01-30T03:50:27.910Z,90484.03
2019-01-30T03:53:17.280Z,90481.20
2019-01-30T03:56:06.665Z,90488.66
2019-01-30T03:58:55.964Z,90491.39
2019-01-30T04:01:45.406Z,90483.78
2019-01-30T04:04:34.289Z,90473.56
2019-01-30T04:07:23.559Z,90482.25
2019-01-30T04:10:15.618Z,90482.75
2019-01-30T04:13:05.294Z,90490.13
2019-01-30T04:15:54.505Z,90499.72
2019-01-30T04:18:43.782Z,90506.98
2019-01-30T04:21:33.337Z,90516.34
2019-01-30T04:24:22.839Z,90523.84
2019-01-30T04:27:12.106Z,90525.82
2019-01-30T04:30:01.709Z,90539.27
2019-01-30T04:32:50.885Z,90529.70
2019-01-30T04:35:39.638Z,90553.16
2019-01-30T04:38:28.896Z,90545.00
2019-01-30T04:41:18.708Z,90537.44
2019-01-30T04:44:07.974Z,90536.50
2019-01-30T04:46:58.266Z,90537.31
2019-01-30T04:49:47.735Z,90541.61
2019-01-30T04:52:36.385Z,90551.05
2019-01-30T04:55:25.619Z,90553.50
2019-01-30T04:58:15.091Z,90557.31
2019-01-30T05:01:05.084Z,90571.68
2019-01-30T05:03:53.854Z,90573.40
2019-01-30T05:06:43.188Z,90570.86
2019-01-30T05:09:32.773Z,90579.21
2019-01-30T05:12:22.376Z,90583.67
2019-01-30T05:15:14.349Z,90568.78
2019-01-30T05:18:03.992Z,90572.92
2019-01-30T05:20:53.480Z,90566.35
2019-01-30T05:23:42.726Z,90562.98
2019-01-30T05:26:32.049Z,90565.01
2019-01-30T05:29:21.638Z,90560.32
2019-01-30T05:32:11.130Z,90561.27
2019-01-30T05:35:00.394Z,90569.02
2019-01-30T05:37:51.449Z,90569.75
2019-01-30T05:40:41.118Z,90573.30
2019-01-30T05:43:30.531Z,90570.57
2019-01-30T05:46:19.789Z,90570.50
2019-01-30T05:49:09.471Z,90575.01
2019-01-30T05:51:59.028Z,90572.63
2019-01-30T05:54:48.644Z,90576.28
2019-01-30T05:57:37.608Z,90578.24
2019-01-30T06:00:35.622Z,90570.02
2019-01-30T06:03:24.866Z,90577.12
2019-01-30T06:06:14.590Z,90568.09
2019-01-30T06:09:05.182Z,90584.19
2019-01-30T06:11:54.041Z,90578.20
2019-01-30T06:14:43.330Z,90579.97
2019-01-30T06:17:32.643Z,90579.15
2019-01-30T06:20:24.483Z,90578.49
2019-01-30T06:23:13.711Z,90577.67
2019-01-30T06:26:02.855Z,90585.36
2019-01-30T06:28:52.226Z,90587.97
2019-01-30T06:31:41.644Z,90590.16
2019-01-30T06:34:31.083Z,90591.33
2019-01-30T06:37:20.285Z,90593.36
2019-01-30T06:40:13.124Z,90583.20
2019-01-30T06:43:03.003Z,90586.84
2019-01-30T06:45:51.871Z,90586.06
2019-01-30T06:48:41.131Z,90592.73
2019-01-30T06:51:30.679Z,90586.80
2019-01-30T06:54:19.953Z,90591.12
2019-01-30T06:57:09.237Z,90590.31
2019-01-30T06:59:58.538Z,90588.81
2019-01-30T07:02:48.118Z,90596.94
2019-01-30T07:05:37.558Z,90601.25
2019-01-30T07:08:27.039Z,90600.02
2019-01-30T07:11:16.484Z,90594.85
2019-01-30T07:14:05.939Z,90593.71
2019-01-30T07:16:55.446Z,90584.33
2019-01-30T07:19:44.266Z,90584.69
2019-01-30T07:22:33.558Z,90583.04
2019-01-30T07:25:23.293Z,90591.10
2019-01-30T07:28:12.961Z,90594.87
2019-01-30T07:31:02.129Z,90594.87
2019-01-30T07:34:42.145Z,90590.92
2019-01-30T07:37:31.621Z,90595.89
2019-01-30T07:40:21.548Z,90602.33
2019-01-30T07:43:10.886Z,90609.22
2019-01-30T07:46:00.181Z,90623.23
2019-01-30T07:48:49.621Z,90618.58
2019-01-30T07:51:38.788Z,90623.55
2019-01-30T07:58:05.909Z,90621.31
2019-01-30T08:00:55.779Z,90615.70
2019-01-30T08:03:44.892Z,90616.77
2019-01-30T08:06:34.131Z,90620.65
2019-01-30T08:09:23.738Z,90616.88
2019-01-30T08:12:13.184Z,90620.91
2019-01-30T08:15:02.218Z,90613.78
2019-01-30T08:17:51.748Z,90616.00
2019-01-30T08:20:41.310Z,90617.25
2019-01-30T08:23:30.853Z,90619.58
2019-01-30T08:26:21.051Z,90617.03
2019-01-30T08:29:10.843Z,90631.73
2019-01-30T08:32:00.587Z,90628.04
2019-01-30T08:34:50.476Z,90630.84
2019-01-30T08:37:39.927Z,90636.16
2019-01-30T08:40:29.322Z,90632.39
2019-01-30T08:43:18.938Z,90636.67
2019-01-30T08:46:08.235Z,90634.77
2019-01-30T08:48:57.456Z,90642.38
2019-01-30T08:51:46.713Z,90645.84
2019-01-30T08:54:35.544Z,90649.42
2019-01-30T08:57:24.816Z,90647.86
2019-01-30T09:00:17.012Z,90649.34
2019-01-30T09:03:14.575Z,90654.14
2019-01-30T09:05:57.369Z,90649.65
2019-01-30T09:08:46.718Z,90654.83
2019-01-30T09:11:36.285Z,90650.42
2019-01-30T09:14:25.605Z,90649.46
2019-01-30T09:17:15.084Z,90657.50
2019-01-30T09:20:03.885Z,90653.08
2019-01-30T09:22:53.130Z,90649.87
2019-01-30T09:25:42.402Z,90652.38
2019-01-30T09:28:31.540Z,90655.90
2019-01-30T09:31:20.806Z,90651.75
2019-01-30T09:34:10.415Z,90655.87
2019-01-30T09:36:59.754Z,90645.66
2019-01-30T09:39:49.151Z,90648.37
2019-01-30T09:42:38.400Z,90646.36
2019-01-30T09:45:28.142Z,90642.42
2019-01-30T09:48:17.517Z,90633.75
2019-01-30T09:51:06.775Z,90628.51
2019-01-30T09:53:58.620Z,90634.36
2019-01-30T09:56:47.946Z,90636.84
2019-01-30T09:59:37.530Z,90631.91
2019-01-30T10:02:27.062Z,90627.77
2019-01-30T10:05:16.656Z,90622.86
2019-01-30T10:08:06.717Z,90625.40
2019-01-30T10:10:56.344Z,90623.41
2019-01-30T10:13:45.176Z,90621.44
2019-01-30T10:16:34.494Z,90609.61
2019-01-30T10:19:23.804Z,90604.92
2019-01-30T10:22:13.106Z,90606.26
2019-01-30T10:25:02.682Z,90597.66
2019-01-30T10:27:51.950Z,90584.14
2019-01-30T10:30:43.499Z,90581.84
2019-01-30T10:33:32.957Z,90569.02
2019-01-30T10:36:22.577Z,90569.52
2019-01-30T10:39:13.389Z,90570.69
2019-01-30T10:42:02.857Z,90570.77
2019-01-30T10:44:52.219Z,90572.04
2019-01-30T10:47:41.686Z,90560.98
2019-01-30T10:50:31.422Z,90556.42
2019-01-30T10:53:20.963Z,90557.37
2019-01-30T10:56:10.410Z,90556.12
2019-01-30T10:58:59.803Z,90555.69
2019-01-30T11:01:49.178Z,90552.48
2019-01-30T11:04:37.972Z,90548.62
2019-01-30T11:07:27.411Z,90544.41
2019-01-30T11:10:18.097Z,90542.57
2019-01-30T11:13:08.166Z,90543.14
2019-01-30T11:15:57.574Z,90540.66
2019-01-30T11:18:46.926Z,90537.27
2019-01-30T11:21:36.060Z,90530.65
2019-01-30T11:24:25.112Z,90531.20
2019-01-30T11:27:14.742Z,90529.30
2019-01-30T11:30:04.787Z,90528.14
2019-01-30T11:32:55.573Z,90523.78
2019-01-30T11:35:44.873Z,90525.27
2019-01-30T11:38:34.674Z,90530.12
2019-01-30T11:41:24.127Z,90533.59
2019-01-30T11:44:13.297Z,90533.42
2019-01-30T11:47:02.746Z,90526.36
2019-01-30T11:49:52.313Z,90523.85
2019-01-30T11:52:41.824Z,90521.95
2019-01-30T11:55:31.093Z,90525.55
2019-01-30T11:58:19.882Z,90527.66
2019-01-30T12:01:09.237Z,90522.64
2019-01-30T12:03:58.755Z,90517.19
2019-01-30T12:06:48.662Z,90523.15
2019-01-30T12:09:37.676Z,90521.19
2019-01-30T12:12:26.762Z,90519.23
2019-01-30T12:15:17.750Z,90519.71
2019-01-30T12:18:06.901Z,90514.76
2019-01-30T12:20:56.495Z,90518.32
2019-01-30T12:23:45.801Z,90509.42
2019-01-30T12:26:35.101Z,90508.62
2019-01-30T12:29:25.821Z,90513.15
2019-01-30T12:32:15.226Z,90508.77
2019-01-30T12:35:05.628Z,90506.52
2019-01-30T12:37:54.446Z,90505.39
2019-01-30T12:40:44.054Z,90508.34
2019-01-30T12:43:33.811Z,90510.33
2019-01-30T12:46:23.221Z,90514.36
2019-01-30T12:49:12.469Z,90513.20
2019-01-30T12:52:01.782Z,90515.44
2019-01-30T12:54:51.106Z,90511.73
2019-01-30T12:57:22.092Z,90512.27
2019-01-30T12:59:53.148Z,90517.88
2019-01-30T13:02:24.059Z,90523.79
2019-01-30T13:04:54.965Z,90518.19
2019-01-30T13:07:25.840Z,90521.70
2019-01-30T13:09:56.888Z,90515.27
2019-01-30T13:12:27.824Z,90521.27
2019-01-30T13:14:58.692Z,90518.95
2019-01-30T13:17:29.642Z,90520.84
2019-01-30T13:20:00.639Z,90528.42
2019-01-30T13:22:31.734Z,90520.11
2019-01-30T13:25:02.617Z,90520.02
2019-01-30T13:27:33.604Z,90522.88
2019-01-30T13:30:06.088Z,90522.67
2019-01-30T13:32:36.958Z,90524.42
2019-01-30T13:35:08.335Z,90524.84
2019-01-30T13:37:39.193Z,90521.89
2019-01-30T13:40:16.774Z,90527.07
2019-01-30T13:42:47.818Z,90519.79
2019-01-30T13:45:19.172Z,90520.22
2019-01-30T13:47:50.421Z,90521.95
2019-01-30T13:50:22.757Z,90520.35
2019-01-30T13:52:53.806Z,90522.73
2019-01-30T13:55:24.799Z,90526.52
2019-01-30T13:57:55.760Z,90522.32
2019-01-30T14:00:31.841Z,90519.31
2019-01-30T14:03:03.026Z,90518.77
2019-01-30T14:05:34.219Z,90518.42
2019-01-30T14:08:07.216Z,90514.43
2019-01-30T14:10:38.089Z,90516.42
2019-01-30T14:13:12.076Z,90512.45
2019-01-30T14:15:42.992Z,90515.34
2019-01-30T14:18:13.971Z,90510.66
2019-01-30T14:20:44.861Z,90511.89
2019-01-30T14:23:15.712Z,90516.66
2019-01-30T14:25:46.848Z,90515.47
2019-01-30T14:28:17.708Z,90519.95
2019-01-30T14:30:53.081Z,90517.44
2019-01-30T14:33:24.184Z,90522.16
2019-01-30T14:35:55.126Z,90515.39
2019-01-30T14:38:26.096Z,90517.57
2019-01-30T14:40:56.984Z,90522.71
2019-01-30T14:43:27.856Z,90523.19
2019-01-30T14:45:58.786Z,90522.74
2019-01-30T14:48:29.795Z,90521.92
2019-01-30T14:51:00.797Z,90527.09
2019-01-30T14:53:31.654Z,90525.91
2019-01-30T14:56:02.535Z,90520.16
2019-01-30T14:58:33.659Z,90525.55
2019-01-30T15:01:06.947Z,90526.07
2019-01-30T15:03:38.242Z,90523.86
2019-01-30T15:06:09.210Z,90529.39
2019-01-30T15:08:40.125Z,90530.28
2019-01-30T15:11:11.870Z,90530.95
2019-01-30T15:13:42.979Z,90533.86
2019-01-30T15:16:13.870Z,90525.77
2019-01-30T15:18:44.877Z,90523.84
2019-01-30T15:21:15.826Z,90525.61
2019-01-30T15:23:46.691Z,90526.13
2019-01-30T15:26:17.577Z,90525.71
2019-01-30T15:28:48.560Z,90528.06
2019-01-30T15:31:19.459Z,90531.02
2019-01-30T15:33:50.446Z,90526.46
2019-01-30T15:36:21.409Z,90529.95
2019-01-30T15:38:52.621Z,90529.73
2019-01-30T15:41:23.526Z,90528.09
2019-01-30T15:43:54.523Z,90528.27
2019-01-30T15:46:25.478Z,90522.03
2019-01-30T15:48:56.495Z,90523.61
2019-01-30T15:51:27.416Z,90527.91
2019-01-30T15:53:58.310Z,90539.31
2019-01-30T15:56:29.201Z,90547.11
2019-01-30T15:59:00.248Z,90537.89
2019-01-30T16:01:37.852Z,90540.63
2019-01-30T16:04:10.423Z,90545.69
2019-01-30T16:06:41.602Z,90546.86
2019-01-30T16:09:12.586Z,90548.06
2019-01-30T16:11:43.692Z,90548.39
2019-01-30T16:14:16.146Z,90551.97
2019-01-30T16:16:47.144Z,90554.46
2019-01-30T16:19:18.038Z,90548.03
2019-01-30T16:21:48.914Z,90556.16
2019-01-30T16:24:19.884Z,90549.20
2019-01-30T16:26:52.416Z,90549.23
2019-01-30T16:29:23.293Z,90553.29
2019-01-30T16:31:54.300Z,90556.80
2019-01-30T16:34:25.397Z,90556.95
2019-01-30T16:36:56.270Z,90560.08
2019-01-30T16:39:29.149Z,90560.06
2019-01-30T16:41:59.856Z,90560.91
2019-01-30T16:44:30.737Z,90564.86
2019-01-30T16:47:01.762Z,90570.28
2019-01-30T16:49:32.735Z,90572.47
2019-01-30T16:52:03.748Z,90572.86
2019-01-30T16:54:34.719Z,90573.33
2019-01-30T16:57:05.851Z,90568.10
2019-01-30T16:59:36.860Z,90567.87
2019-01-30T17:02:07.821Z,90574.16
2019-01-30T17:04:38.714Z,90577.75
2019-01-30T17:07:12.998Z,90571.66
2019-01-30T17:09:43.961Z,90575.08
2019-01-30T17:12:14.974Z,90576.33
2019-01-30T17:14:45.975Z,90574.50
2019-01-30T17:17:17.115Z,90577.06
2019-01-30T17:19:48.081Z,90579.16
2019-01-30T17:22:24.814Z,90576.96
2019-01-30T17:25:12.763Z,90573.84
2019-01-30T17:27:43.824Z,90578.20
2019-01-30T17:30:24.534Z,90578.55
2019-01-30T17:32:55.443Z,90581.43
2019-01-30T17:35:29.857Z,90580.33
2019-01-30T17:38:00.878Z,90584.64
2019-01-30T17:40:31.769Z,90590.50
2019-01-30T17:43:02.988Z,90582.21
2019-01-30T17:45:33.981Z,90586.27
2019-01-30T17:48:05.631Z,90582.28
2019-01-30T17:50:37.491Z,90578.45
2019-01-30T17:53:08.419Z,90579.17
2019-01-30T17:55:39.317Z,90585.98
2019-01-30T17:58:10.489Z,90582.09
2019-01-30T18:00:53.190Z,90586.78
2019-01-30T18:03:29.119Z,90589.75
2019-01-30T18:06:00.090Z,90589.45
2019-01-30T18:08:31.066Z,90585.94
2019-01-30T18:11:01.994Z,90585.86
2019-01-30T18:13:32.910Z,90584.54
2019-01-30T18:16:04.247Z,90583.63
2019-01-30T18:18:35.133Z,90585.50
2019-01-30T18:21:06.109Z,90583.99
2019-01-30T18:23:37.275Z,90587.81
2019-01-30T18:26:08.308Z,90588.44
2019-01-30T18:28:39.230Z,90577.31
2019-01-30T18:31:10.152Z,90574.66
2019-01-30T18:33:41.028Z,90580.35
2019-01-30T18:36:12.040Z,90587.45
2019-01-30T18:38:42.911Z,90585.18
2019-01-30T18:41:13.799Z,90583.61
2019-01-30T18:43:45.547Z,90589.63
2019-01-30T18:46:16.562Z,90585.49
2019-01-30T18:48:55.284Z,90585.86
2019-01-30T18:51:25.323Z,90586.50
2019-01-30T18:53:56.471Z,90589.61
2019-01-30T18:56:27.724Z,90593.66
2019-01-30T18:58:58.656Z,90598.08
2019-01-30T19:01:30.022Z,90601.41
2019-01-30T19:04:01.049Z,90591.86
2019-01-30T19:06:32.041Z,90586.02
2019-01-30T19:09:05.072Z,90592.77
2019-01-30T19:11:36.124Z,90595.69
2019-01-30T19:14:10.563Z,90596.57
2019-01-30T19:16:41.830Z,90596.80
2019-01-30T19:19:12.970Z,90597.95
2019-01-30T19:21:44.121Z,90601.13
2019-01-30T19:24:19.875Z,90607.88
2019-01-30T19:26:53.148Z,90606.70
2019-01-30T19:29:24.078Z,90602.26
2019-01-30T19:31:55.316Z,90602.52
2019-01-30T19:34:26.477Z,90604.23
2019-01-30T19:37:03.545Z,90606.80
2019-01-30T19:39:36.377Z,90608.91
2019-01-30T19:42:07.435Z,90602.67
2019-01-30T19:44:38.711Z,90610.02
2019-01-30T19:47:09.756Z,90612.18
2019-01-30T19:49:41.149Z,90615.69
2019-01-30T19:52:12.481Z,90615.38
2019-01-30T19:54:44.827Z,90614.67
2019-01-30T19:57:17.972Z,90615.07
2019-01-30T19:59:54.451Z,90617.20
2019-01-30T20:02:30.819Z,90617.58
2019-01-30T20:05:06.908Z,90619.61
2019-01-30T20:07:41.362Z,90623.12
2019-01-30T20:10:30.952Z,90621.95
2019-01-30T20:13:04.655Z,90627.72
2019-01-30T20:15:38.448Z,90628.18
2019-01-30T20:18:11.882Z,90634.77
2019-01-30T20:20:44.123Z,90634.92
2019-01-30T20:23:17.796Z,90639.60
2019-01-30T20:25:49.005Z,90637.17
2019-01-30T20:28:20.138Z,90632.73
2019-01-30T20:30:51.578Z,90640.63
2019-01-30T20:33:22.769Z,90635.09
2019-01-30T20:35:53.690Z,90630.98
2019-01-30T20:38:24.677Z,90629.22
2019-01-30T20:40:55.902Z,90626.95
2019-01-30T20:43:31.794Z,90621.11
2019-01-30T20:46:05.775Z,90632.28
2019-01-30T20:48:47.203Z,90625.88
2019-01-30T20:51:12.091Z,90631.76
2019-01-30T20:53:47.319Z,90631.08
2019-01-30T20:56:20.113Z,90626.96
2019-01-30T20:59:09.727Z,90627.70
2019-01-30T21:01:59.618Z,90617.72
2019-01-30T21:04:49.316Z,90620.28
2019-01-30T21:08:13.964Z,90626.81
2019-01-30T21:11:02.918Z,90616.86
2019-01-30T21:13:51.819Z,90619.48
2019-01-30T21:16:42.351Z,90619.13
2019-01-30T21:19:32.043Z,90618.55
2019-01-30T21:22:23.729Z,90623.61
2019-01-30T21:25:15.950Z,90622.91
2019-01-30T21:28:07.798Z,90618.37
2019-01-30T21:30:57.209Z,90614.19
2019-01-30T21:33:46.491Z,90618.70
2019-01-30T21:36:35.839Z,90617.69
2019-01-30T21:39:25.436Z,90619.94
2019-01-30T21:42:14.798Z,90625.41
2019-01-30T21:45:04.346Z,90628.05
2019-01-30T21:47:53.539Z,90623.80
2019-01-30T21:50:42.656Z,90619.28
2019-01-30T21:53:32.787Z,90618.56
2019-01-30T21:56:22.020Z,90619.82
2019-01-30T21:59:11.509Z,90625.92
2019-01-30T22:02:08.001Z,90636.13
2019-01-30T22:04:51.939Z,90625.45
2019-01-30T22:07:41.501Z,90619.75
2019-01-30T22:10:34.160Z,90627.21
2019-01-30T22:13:23.217Z,90631.00
2019-01-30T22:16:12.333Z,90634.89
2019-01-30T22:19:01.674Z,90635.55
2019-01-30T22:21:50.962Z,90632.02
2019-01-30T22:24:40.492Z,90630.44
2019-01-30T22:27:29.340Z,90631.22
2019-01-30T22:30:32.805Z,90632.63
2019-01-30T22:33:22.349Z,90629.59
2019-01-30T22:36:11.988Z,90632.11
2019-01-30T22:39:01.095Z,90624.80
2019-01-30T22:41:50.670Z,90624.17
2019-01-30T22:44:40.039Z,90622.77
2019-01-30T22:47:29.302Z,90613.48
2019-01-30T22:50:19.435Z,90607.47
2019-01-30T22:53:09.292Z,90615.89
2019-01-30T22:55:58.680Z,90622.38
2019-01-30T22:58:48.327Z,90621.31
2019-01-30T23:02:00.608Z,90624.34
2019-01-30T23:05:20.588Z,90625.09
2019-01-30T23:08:27.613Z,90622.59
2019-01-30T23:11:57.551Z,90607.78
2019-01-30T23:14:55.273Z,90606.30
2019-01-30T23:18:13.279Z,90619.87
2019-01-30T23:21:16.514Z,90620.98
2019-01-30T23:24:48.248Z,90619.13
2019-01-30T23:27:45.745Z,90620.13
2019-01-30T23:30:56.477Z,90624.33
2019-01-30T23:34:25.686Z,90629.02
2019-01-30T23:37:53.033Z,90629.17
2019-01-30T23:41:07.655Z,90624.86
2019-01-30T23:44:30.882Z,90622.81
2019-01-30T23:48:00.027Z,90616.47
2019-01-30T23:51:37.514Z,90620.48
2019-01-30T23:54:59.054Z,90620.16
2019-01-30T23:58:14.611Z,90632.52
